Time;durP1;ratioP1;P1;durP2;ratioP2;P2;SDS_P1;SDS_P2;PMS_P1;PMS_P2;Temp;Humidity;BMP_temperature;BMP_pressure;BME280_temperature;BME280_humidity;BME280_pressure;Samples;Min_cycle;Max_cycle;Signal;HPM_P1;HPM_P2
2023/03/07 00:00:39;;;;;;;;;;;;;;;;;;5054658;28;20041;-79
2023/03/07 00:03:05;;;;;;;8.20;2.92;;;;;;;;;;5054405;28;19931;-79
2023/03/07 00:05:31;;;;;;;11.88;4.40;;;;;;;;;;5054077;28;20039;-80
2023/03/07 00:07:56;;;;;;;7.40;2.70;;;;;;;;;;5036244;28;20116;-79
2023/03/07 00:10:22;;;;;;;9.77;2.85;;;;;;;;;;5036093;28;20037;-79
2023/03/07 00:12:47;;;;;;;9.05;3.25;;;;;;;;;;5036401;28;20033;-79
2023/03/07 00:15:13;;;;;;;5.88;3.03;;;;;;;;;;5036008;28;20522;-79
2023/03/07 00:17:38;;;;;;;8.25;2.70;;;;;;;;;;5054130;28;20083;-79
2023/03/07 00:20:07;;;;;;;8.70;2.80;;;;;;;;;;5036587;28;20032;-79
2023/03/07 00:22:33;;;;;;;9.38;3.13;;;;;;;;;;5054044;28;20052;-78
2023/03/07 00:24:58;;;;;;;7.55;3.08;;;;;;;;;;5036111;28;20076;-79
2023/03/07 00:27:24;;;;;;;13.32;3.40;;;;;;;;;;5054154;28;20840;-78
2023/03/07 00:29:49;;;;;;;9.60;3.45;;;;;;;;;;5035956;28;20033;-79
2023/03/07 00:32:15;;;;;;;8.70;3.22;;;;;;;;;;5019494;28;20029;-79
2023/03/07 00:34:40;;;;;;;8.45;3.30;;;;;;;;;;5018959;28;20037;-79
2023/03/07 00:37:06;;;;;;;9.23;3.65;;;;;;;;;;5035901;28;20033;-79
2023/03/07 00:39:31;;;;;;;15.02;3.80;;;;;;;;;;5015417;28;20030;-79
2023/03/07 00:41:57;;;;;;;12.05;4.07;;;;;;;;;;5026004;28;20029;-78
2023/03/07 00:44:24;;;;;;;13.50;3.85;;;;;;;;;;5035395;28;20067;-78
2023/03/07 00:46:49;;;;;;;13.27;4.20;;;;;;;;;;5053203;28;20182;-79
2023/03/07 00:49:15;;;;;;;12.25;3.85;;;;;;;;;;5053364;28;20033;-79
2023/03/07 00:51:41;;;;;;;11.60;3.72;;;;;;;;;;5035392;28;20060;-79
2023/03/07 00:54:06;;;;;;;11.75;3.90;;;;;;;;;;5062045;28;20094;-78
2023/03/07 00:56:32;;;;;;;10.15;3.40;;;;;;;;;;5072818;28;20188;-79
2023/03/07 00:58:57;;;;;;;10.50;3.88;;;;;;;;;;5021855;28;20036;-79
2023/03/07 01:01:23;;;;;;;12.10;3.67;;;;;;;;;;5019469;28;20025;-78
2023/03/07 01:03:51;;;;;;;;;;;;;;;;;;5019715;28;20044;-78
2023/03/07 01:06:17;;;;;;;12.00;3.60;;;;;;;;;;5035346;28;19916;-79
2023/03/07 01:08:43;;;;;;;10.82;4.22;;;;;;;;;;5018655;28;20094;-79
2023/03/07 01:11:08;;;;;;;;;;;;;;;;;;5012657;28;20039;-79
2023/03/07 01:13:34;;;;;;;10.93;4.10;;;;;;;;;;5041307;28;19912;-79
2023/03/07 01:16:10;;;;;;;8.38;3.75;;;;;;;;;;5044544;28;20025;-79
2023/03/07 01:18:35;;;;;;;8.63;3.53;;;;;;;;;;5052046;28;20032;-80
2023/03/07 01:21:01;;;;;;;11.13;3.80;;;;;;;;;;5072729;28;20021;-79
2023/03/07 01:23:26;;;;;;;10.85;3.10;;;;;;;;;;5054084;28;20032;-79
2023/03/07 01:25:52;;;;;;;14.50;4.45;;;;;;;;;;5043725;28;20056;-79
2023/03/07 01:28:17;;;;;;;10.02;5.22;;;;;;;;;;5047561;28;20029;-79
2023/03/07 01:30:43;;;;;;;9.32;4.40;;;;;;;;;;5063129;28;20471;-79
2023/03/07 01:33:09;;;;;;;10.57;3.83;;;;;;;;;;5068046;28;20384;-79
2023/03/07 01:35:35;;;;;;;;;;;;;;;;;;5035446;28;20037;-80
2023/03/07 01:38:00;;;;;;;11.55;3.85;;;;;;;;;;5035887;28;19918;-79
2023/03/07 01:40:26;;;;;;;13.88;4.43;;;;;;;;;;5035150;28;20158;-79
2023/03/07 01:42:52;;;;;;;;;;;;;;;;;;5052146;28;20414;-80
2023/03/07 01:45:34;;;;;;;9.15;3.75;;;;;;;;;;5041081;28;20027;-79
2023/03/07 01:48:01;;;;;;;10.48;3.92;;;;;;;;;;5054133;28;20044;-79
2023/03/07 01:50:27;;;;;;;13.68;4.00;;;;;;;;;;5040473;28;20074;-79
2023/03/07 01:52:53;;;;;;;12.75;4.05;;;;;;;;;;5064359;28;20036;-79
2023/03/07 01:55:23;;;;;;;8.98;3.90;;;;;;;;;;5036502;28;20094;-79
2023/03/07 01:57:51;;;;;;;10.27;4.15;;;;;;;;;;5037887;28;20031;-79
2023/03/07 02:00:24;;;;;;;8.65;3.58;;;;;;;;;;5037154;28;20493;-79
2023/03/07 02:02:50;;;;;;;10.70;4.40;;;;;;;;;;5038126;28;20037;-79
2023/03/07 02:05:20;;;;;;;11.98;3.95;;;;;;;;;;5032944;28;20373;-79
2023/03/07 02:07:47;;;;;;;12.00;3.90;;;;;;;;;;5024985;28;20053;-79
2023/03/07 02:10:13;;;;;;;10.80;4.10;;;;;;;;;;5050718;28;20081;-79
2023/03/07 02:12:39;;;;;;;10.38;4.10;;;;;;;;;;5053535;28;20429;-78
2023/03/07 02:15:04;;;;;;;;;;;;;;;;;;5071693;28;20032;-79
2023/03/07 02:17:30;;;;;;;11.00;3.88;;;;;;;;;;5053416;28;19961;-79
2023/03/07 02:20:02;;;;;;;10.02;3.72;;;;;;;;;;5053693;28;20055;-79
2023/03/07 02:22:28;;;;;;;7.90;3.85;;;;;;;;;;5071122;28;20048;-79
2023/03/07 02:25:01;;;;;;;10.88;5.18;;;;;;;;;;5053462;28;20067;-79
2023/03/07 02:27:29;;;;;;;11.45;4.18;;;;;;;;;;5036885;28;20045;-79
2023/03/07 02:29:55;;;;;;;11.93;4.43;;;;;;;;;;5033969;28;20036;-79
2023/03/07 02:32:20;;;;;;;14.77;4.22;;;;;;;;;;5052819;28;20642;-79
2023/03/07 02:34:46;;;;;;;14.00;4.50;;;;;;;;;;5036626;28;20119;-79
2023/03/07 02:37:20;;;;;;;13.90;4.35;;;;;;;;;;5034373;28;20908;-79
2023/03/07 02:39:47;;;;;;;9.57;4.03;;;;;;;;;;5047078;28;20028;-79
2023/03/07 02:42:19;;;;;;;9.80;4.20;;;;;;;;;;5053243;28;20019;-79
2023/03/07 02:44:56;;;;;;;10.70;4.38;;;;;;;;;;5034317;28;20041;-79
2023/03/07 02:47:23;;;;;;;10.60;3.97;;;;;;;;;;5036814;28;20078;-79
2023/03/07 02:49:49;;;;;;;9.82;4.25;;;;;;;;;;5035475;28;20029;-79
2023/03/07 02:52:14;;;;;;;8.43;4.60;;;;;;;;;;5036720;28;20075;-79
2023/03/07 02:54:40;;;;;;;7.82;4.20;;;;;;;;;;5050685;28;20052;-79
2023/03/07 02:57:06;;;;;;;8.20;3.95;;;;;;;;;;5041828;28;20043;-80
2023/03/07 02:59:31;;;;;;;9.38;4.15;;;;;;;;;;5070603;28;20029;-79
2023/03/07 03:01:57;;;;;;;10.60;4.18;;;;;;;;;;5071222;28;20032;-77
2023/03/07 03:04:22;;;;;;;9.55;4.00;;;;;;;;;;5052615;28;20042;-78
2023/03/07 03:06:48;;;;;;;12.25;4.68;;;;;;;;;;5053330;28;20044;-78
2023/03/07 03:09:14;;;;;;;9.85;5.55;;;;;;;;;;5036134;28;20039;-78
2023/03/07 03:11:39;;;;;;;13.07;4.63;;;;;;;;;;5052690;28;20036;-80
2023/03/07 03:14:05;;;;;;;7.65;3.85;;;;;;;;;;5052317;28;20039;-78
2023/03/07 03:16:30;;;;;;;12.80;4.53;;;;;;;;;;5070723;28;20036;-80
2023/03/07 03:18:56;;;;;;;10.88;4.72;;;;;;;;;;5052462;28;20097;-78
2023/03/07 03:21:21;;;;;;;8.18;4.47;;;;;;;;;;5036665;28;20044;-79
2023/03/07 03:23:47;;;;;;;13.02;4.63;;;;;;;;;;5052341;28;20060;-79
2023/03/07 03:26:12;;;;;;;11.95;4.10;;;;;;;;;;5052849;28;20044;-79
2023/03/07 03:28:38;;;;;;;10.35;4.50;;;;;;;;;;5070317;28;20036;-79
2023/03/07 03:31:07;;;;;;;12.65;4.90;;;;;;;;;;5052793;28;20029;-80
2023/03/07 03:33:34;;;;;;;7.38;4.47;;;;;;;;;;5034429;28;20064;-79
2023/03/07 03:35:59;;;;;;;9.38;4.30;;;;;;;;;;5070737;28;20041;-79
2023/03/07 03:38:25;;;;;;;10.90;4.57;;;;;;;;;;5035910;28;20021;-80
2023/03/07 03:40:51;;;;;;;10.43;4.20;;;;;;;;;;5032383;28;20040;-79
2023/03/07 03:43:17;;;;;;;8.73;4.60;;;;;;;;;;5055347;28;20020;-79
2023/03/07 03:45:43;;;;;;;8.05;4.13;;;;;;;;;;5036117;28;20059;-79
2023/03/07 03:48:09;;;;;;;12.32;4.22;;;;;;;;;;5052595;28;20449;-79
2023/03/07 03:50:34;;;;;;;8.65;4.10;;;;;;;;;;5051753;28;20052;-78
2023/03/07 03:53:00;;;;;;;9.18;4.20;;;;;;;;;;5052062;28;20535;-79
2023/03/07 03:55:25;;;;;;;8.30;3.72;;;;;;;;;;5035509;28;20025;-79
2023/03/07 03:57:51;;;;;;;8.52;4.53;;;;;;;;;;5031437;28;20052;-79
2023/03/07 04:00:18;;;;;;;10.48;4.57;;;;;;;;;;5070112;28;20028;-79
2023/03/07 04:02:45;;;;;;;12.23;3.92;;;;;;;;;;5035525;28;20024;-80
2023/03/07 04:05:14;;;;;;;9.88;4.10;;;;;;;;;;5043032;28;20037;-80
2023/03/07 04:07:39;;;;;;;9.80;3.63;;;;;;;;;;5031948;28;20043;-79
2023/03/07 04:10:05;;;;;;;;;;;;;;;;;;5033051;28;20117;-80
2023/03/07 04:12:31;;;;;;;8.27;4.00;;;;;;;;;;5024786;28;19909;-80
2023/03/07 04:14:56;;;;;;;8.27;3.70;;;;;;;;;;5033349;28;20411;-79
2023/03/07 04:17:22;;;;;;;12.18;3.50;;;;;;;;;;5028586;28;20045;-77
2023/03/07 04:19:48;;;;;;;10.85;3.72;;;;;;;;;;5033337;28;20033;-80
2023/03/07 04:22:13;;;;;;;7.65;3.60;;;;;;;;;;5034500;28;20040;-80
2023/03/07 04:24:39;;;;;;;;;;;;;;;;;;5052588;28;20033;-80
2023/03/07 04:27:06;;;;;;;5.70;3.20;;;;;;;;;;5034529;28;19915;-80
2023/03/07 04:29:33;;;;;;;7.18;3.25;;;;;;;;;;5021018;28;20056;-79
2023/03/07 04:32:03;;;;;;;6.57;3.38;;;;;;;;;;5022765;28;20048;-78
2023/03/07 04:34:29;;;;;;;9.88;4.80;;;;;;;;;;4996087;28;20075;-80
2023/03/07 04:36:55;;;;;;;10.38;4.28;;;;;;;;;;5036424;28;20492;-80
2023/03/07 04:39:20;;;;;;;7.45;3.75;;;;;;;;;;5063791;28;20028;-78
2023/03/07 04:41:46;;;;;;;7.00;3.38;;;;;;;;;;5055690;28;20032;-80
2023/03/07 04:44:20;;;;;;;9.00;3.38;;;;;;;;;;5045537;28;20747;-79
2023/03/07 04:46:45;;;;;;;8.45;3.63;;;;;;;;;;5032826;28;20147;-79
2023/03/07 04:49:11;;;;;;;7.15;3.03;;;;;;;;;;5020316;28;20116;-80
2023/03/07 04:51:38;;;;;;;8.30;3.90;;;;;;;;;;5032245;28;20044;-79
2023/03/07 04:54:04;;;;;;;8.10;3.25;;;;;;;;;;5025914;28;20500;-79
2023/03/07 04:56:30;;;;;;;9.32;3.42;;;;;;;;;;5031263;28;20029;-80
2023/03/07 04:58:56;;;;;;;9.20;3.13;;;;;;;;;;5042066;28;20558;-79
2023/03/07 05:01:22;;;;;;;8.93;3.40;;;;;;;;;;5020885;28;20487;-79
2023/03/07 05:03:49;;;;;;;8.88;3.13;;;;;;;;;;5013566;28;20053;-79
2023/03/07 05:06:17;;;;;;;8.23;2.92;;;;;;;;;;5026146;28;20032;-79
2023/03/07 05:08:47;;;;;;;11.30;3.63;;;;;;;;;;5038397;28;20340;-78
2023/03/07 05:11:12;;;;;;;8.57;3.10;;;;;;;;;;5024968;28;20032;-78
2023/03/07 05:13:38;;;;;;;11.98;4.60;;;;;;;;;;5055733;28;20029;-77
2023/03/07 05:16:04;;;;;;;6.43;3.22;;;;;;;;;;5037144;28;20492;-78
2023/03/07 05:18:30;;;;;;;;;;;;;;;;;;5046796;28;20028;-84
2023/03/07 05:20:57;;;;;;;7.70;3.05;;;;;;;;;;5048648;28;19912;-82
2023/03/07 05:23:23;;;;;;;7.80;3.20;;;;;;;;;;5047384;28;20025;-82
2023/03/07 05:25:50;;;;;;;5.15;3.20;;;;;;;;;;5052627;28;20438;-83
2023/03/07 05:28:16;;;;;;;8.32;3.60;;;;;;;;;;5052255;28;20036;-83
2023/03/07 05:30:42;;;;;;;6.00;3.08;;;;;;;;;;5035814;28;20040;-83
2023/03/07 05:33:07;;;;;;;;;;;;;;;;;;5036359;28;20525;-83
2023/03/07 05:35:33;;;;;;;7.05;3.20;;;;;;;;;;5051495;28;19924;-83
2023/03/07 05:38:00;;;;;;;4.90;2.70;;;;;;;;;;5052031;28;20043;-84
2023/03/07 05:40:26;;;;;;;;;;;;;;;;;;5051107;28;20054;-83
2023/03/07 05:42:51;;;;;;;7.07;2.83;;;;;;;;;;5051865;28;19912;-83
2023/03/07 05:45:19;;;;;;;;;;;;;;;;;;5042127;28;20114;-82
2023/03/07 05:47:44;;;;;;;7.85;3.30;;;;;;;;;;5055783;28;20382;-83
2023/03/07 05:50:12;;;;;;;7.88;3.10;;;;;;;;;;5056399;28;20032;-83
2023/03/07 05:52:39;;;;;;;6.05;3.08;;;;;;;;;;5039087;28;20506;-82
2023/03/07 05:55:05;;;;;;;5.90;3.00;;;;;;;;;;5055341;28;20045;-83
2023/03/07 05:57:31;;;;;;;9.63;3.42;;;;;;;;;;5056302;28;20380;-83
2023/03/07 05:59:57;;;;;;;6.63;2.67;;;;;;;;;;5042675;28;20035;-83
2023/03/07 06:02:23;;;;;;;6.32;3.03;;;;;;;;;;5055997;28;20090;-82
2023/03/07 06:04:48;;;;;;;4.28;2.72;;;;;;;;;;5038886;28;20120;-83
2023/03/07 06:07:14;;;;;;;6.88;2.92;;;;;;;;;;5056045;28;20126;-82
2023/03/07 06:09:40;;;;;;;;;;;;;;;;;;5055404;28;20028;-84
2023/03/07 06:12:05;;;;;;;6.53;2.65;;;;;;;;;;5038997;28;20015;-82
2023/03/07 06:14:31;;;;;;;7.25;2.72;;;;;;;;;;5038708;28;20064;-83
2023/03/07 06:16:57;;;;;;;4.85;2.63;;;;;;;;;;5056323;28;20501;-84
2023/03/07 06:19:22;;;;;;;5.10;2.90;;;;;;;;;;5055312;28;20443;-84
2023/03/07 06:21:49;;;;;;;7.95;2.80;;;;;;;;;;5055654;28;20432;-84
2023/03/07 06:24:15;;;;;;;9.82;3.08;;;;;;;;;;5055084;28;20074;-83
2023/03/07 06:26:41;;;;;;;5.03;2.45;;;;;;;;;;5054691;28;20514;-83
2023/03/07 06:29:07;;;;;;;5.97;2.70;;;;;;;;;;5054115;28;20032;-83
2023/03/07 06:31:33;;;;;;;8.13;3.72;;;;;;;;;;5038612;28;20040;-83
2023/03/07 06:33:59;;;;;;;6.18;3.22;;;;;;;;;;5041932;28;20491;-84
2023/03/07 06:36:25;;;;;;;6.18;2.83;;;;;;;;;;5055407;28;20051;-84
2023/03/07 06:38:55;;;;;;;6.78;3.05;;;;;;;;;;5055818;28;20120;-84
2023/03/07 06:41:21;;;;;;;6.78;3.00;;;;;;;;;;5042977;28;20028;-85
2023/03/07 06:43:51;;;;;;;8.27;3.15;;;;;;;;;;5036699;28;20404;-84
2023/03/07 06:46:19;;;;;;;5.95;2.97;;;;;;;;;;5048454;28;20032;-84
2023/03/07 06:48:45;;;;;;;7.45;2.92;;;;;;;;;;5029465;28;20080;-83
2023/03/07 06:51:14;;;;;;;5.25;2.85;;;;;;;;;;5029406;28;20059;-84
2023/03/07 06:53:42;;;;;;;6.10;3.05;;;;;;;;;;5019262;28;20060;-85
2023/03/07 06:56:07;;;;;;;6.32;2.95;;;;;;;;;;5047508;28;20411;-84
2023/03/07 06:58:34;;;;;;;7.60;2.58;;;;;;;;;;5035147;28;20044;-84
2023/03/07 07:01:00;;;;;;;;;;;;;;;;;;5035732;28;20404;-83
2023/03/07 07:03:25;;;;;;;5.63;3.50;;;;;;;;;;5053368;28;19912;-84
2023/03/07 07:05:51;;;;;;;5.07;3.00;;;;;;;;;;5052914;28;20032;-83
2023/03/07 07:08:16;;;;;;;8.95;3.28;;;;;;;;;;5053221;28;20112;-83
2023/03/07 07:10:42;;;;;;;;;;;;;;;;;;5018498;28;20029;-83
2023/03/07 07:13:11;;;;;;;5.00;2.90;;;;;;;;;;5035217;28;19920;-84
2023/03/07 07:15:37;;;;;;;5.60;2.50;;;;;;;;;;5035473;28;20017;-83
2023/03/07 07:18:03;;;;;;;9.57;3.38;;;;;;;;;;5018795;28;20119;-84
2023/03/07 07:20:30;;;;;;;5.75;2.70;;;;;;;;;;5034997;28;20090;-83
2023/03/07 07:22:56;;;;;;;10.02;3.17;;;;;;;;;;5034855;28;20411;-83
2023/03/07 07:25:22;;;;;;;10.25;3.83;;;;;;;;;;5052568;28;20040;-82
2023/03/07 07:27:47;;;;;;;11.10;3.28;;;;;;;;;;5052918;28;20087;-83
2023/03/07 07:30:13;;;;;;;18.33;5.03;;;;;;;;;;5035147;28;20062;-84
2023/03/07 07:32:39;;;;;;;6.82;2.90;;;;;;;;;;5034701;28;20407;-83
2023/03/07 07:35:05;;;;;;;7.20;3.10;;;;;;;;;;5034529;28;20033;-83
2023/03/07 07:37:31;;;;;;;11.07;3.60;;;;;;;;;;5053192;28;20039;-84
2023/03/07 07:39:56;;;;;;;6.20;2.90;;;;;;;;;;5034812;28;20029;-83
2023/03/07 07:42:21;;;;;;;6.90;2.85;;;;;;;;;;5015677;28;20036;-82
2023/03/07 07:45:19;;;;;;;;;;;;;;;;;;5026642;28;20017;-82
2023/03/07 07:47:46;;;;;;;6.68;3.13;;;;;;;;;;5053585;28;20274;-84
2023/03/07 07:50:13;;;;;;;6.40;2.88;;;;;;;;;;5052823;28;20021;-82
2023/03/07 07:52:38;;;;;;;7.28;2.85;;;;;;;;;;5035084;28;20033;-82
2023/03/07 07:55:04;;;;;;;5.03;2.70;;;;;;;;;;5048487;28;20416;-82
2023/03/07 07:57:30;;;;;;;7.30;3.03;;;;;;;;;;5052284;28;20040;-84
2023/03/07 07:59:57;;;;;;;5.13;2.83;;;;;;;;;;5050757;28;20372;-83
2023/03/07 08:02:22;;;;;;;10.13;3.30;;;;;;;;;;5051669;28;20056;-82
2023/03/07 08:04:48;;;;;;;5.78;2.67;;;;;;;;;;5054933;28;20075;-83
2023/03/07 08:07:13;;;;;;;9.45;2.88;;;;;;;;;;5055254;28;20087;-83
2023/03/07 08:09:39;;;;;;;8.75;2.80;;;;;;;;;;5056073;28;20027;-83
2023/03/07 08:12:04;;;;;;;13.02;2.83;;;;;;;;;;5056276;28;20045;-84
2023/03/07 08:14:31;;;;;;;7.68;3.50;;;;;;;;;;5056314;28;20029;-83
2023/03/07 08:16:57;;;;;;;6.28;2.95;;;;;;;;;;5056031;28;20087;-83
2023/03/07 08:19:22;;;;;;;9.10;2.95;;;;;;;;;;5056511;28;20025;-82
2023/03/07 08:21:48;;;;;;;7.13;3.20;;;;;;;;;;5055670;28;20506;-82
2023/03/07 08:24:13;;;;;;;7.30;3.05;;;;;;;;;;5038434;28;20021;-82
2023/03/07 08:26:39;;;;;;;5.25;2.70;;;;;;;;;;5056657;28;20488;-82
2023/03/07 08:29:04;;;;;;;5.00;2.75;;;;;;;;;;5055326;28;20020;-81
2023/03/07 08:31:30;;;;;;;9.02;3.13;;;;;;;;;;5055360;28;20480;-82
2023/03/07 08:33:55;;;;;;;6.78;2.97;;;;;;;;;;5054008;28;20037;-83
2023/03/07 08:36:20;;;;;;;6.63;2.83;;;;;;;;;;5055529;28;20037;-83
2023/03/07 08:38:46;;;;;;;5.57;2.72;;;;;;;;;;5037398;28;20503;-83
2023/03/07 08:41:12;;;;;;;8.15;2.72;;;;;;;;;;5055606;28;20037;-83
2023/03/07 08:43:40;;;;;;;4.82;2.55;;;;;;;;;;5054983;28;20464;-83
2023/03/07 08:46:06;;;;;;;5.90;2.90;;;;;;;;;;5055608;28;20029;-83
2023/03/07 08:48:31;;;;;;;6.43;2.95;;;;;;;;;;5053950;28;20057;-84
2023/03/07 08:50:58;;;;;;;6.07;2.60;;;;;;;;;;5053994;28;20064;-81
2023/03/07 08:53:24;;;;;;;4.88;2.80;;;;;;;;;;5053451;28;20072;-81
2023/03/07 08:55:49;;;;;;;5.90;2.65;;;;;;;;;;5055441;28;20091;-81
2023/03/07 08:58:15;;;;;;;5.65;2.50;;;;;;;;;;5054834;28;20056;-81
2023/03/07 09:00:40;;;;;;;5.43;2.88;;;;;;;;;;5054940;28;20029;-82
2023/03/07 09:03:06;;;;;;;5.43;2.85;;;;;;;;;;5054740;28;20499;-82
2023/03/07 09:05:32;;;;;;;5.50;2.67;;;;;;;;;;5055251;28;20487;-81
2023/03/07 09:07:57;;;;;;;4.80;2.70;;;;;;;;;;5033366;28;20048;-82
2023/03/07 09:10:23;;;;;;;5.43;2.70;;;;;;;;;;5046930;28;20045;-82
2023/03/07 09:12:54;;;;;;;7.03;2.80;;;;;;;;;;5054652;28;20040;-81
2023/03/07 09:15:19;;;;;;;6.65;2.40;;;;;;;;;;5053166;28;20030;-81
2023/03/07 09:17:45;;;;;;;5.85;2.47;;;;;;;;;;5053526;28;20368;-81
2023/03/07 09:20:11;;;;;;;4.57;2.40;;;;;;;;;;5054535;28;20036;-81
2023/03/07 09:22:37;;;;;;;5.63;2.45;;;;;;;;;;5036770;28;20075;-81
2023/03/07 09:25:02;;;;;;;4.72;2.60;;;;;;;;;;5053437;28;20041;-80
2023/03/07 09:27:28;;;;;;;5.30;3.00;;;;;;;;;;5054221;28;20024;-81
2023/03/07 09:29:53;;;;;;;4.82;2.70;;;;;;;;;;5052927;28;20041;-82
2023/03/07 09:32:19;;;;;;;4.55;2.70;;;;;;;;;;5052777;28;20106;-82
2023/03/07 09:34:44;;;;;;;8.23;2.95;;;;;;;;;;5053938;28;20086;-82
2023/03/07 09:37:10;;;;;;;4.40;2.63;;;;;;;;;;5053709;28;20021;-81
2023/03/07 09:39:35;;;;;;;6.45;3.45;;;;;;;;;;5036247;28;20065;-82
2023/03/07 09:42:05;;;;;;;4.95;3.00;;;;;;;;;;5052602;28;20476;-82
2023/03/07 09:44:51;;;;;;;5.50;3.00;;;;;;;;;;5052272;28;20488;-83
2023/03/07 09:47:49;;;;;;;5.22;3.03;;;;;;;;;;5014209;28;20098;-82
2023/03/07 09:50:27;;;;;;;6.72;3.10;;;;;;;;;;5052600;28;20033;-83
2023/03/07 09:52:53;;;;;;;4.47;2.92;;;;;;;;;;5034031;28;20084;-83
2023/03/07 09:55:18;;;;;;;7.68;4.28;;;;;;;;;;5032566;28;20111;-83
2023/03/07 09:57:46;;;;;;;4.93;3.40;;;;;;;;;;5047396;28;20029;-82
2023/03/07 10:00:18;;;;;;;5.25;3.20;;;;;;;;;;5052537;28;20060;-82
2023/03/07 10:03:02;;;;;;;7.47;3.42;;;;;;;;;;5053288;28;20116;-82
2023/03/07 10:05:41;;;;;;;5.55;3.67;;;;;;;;;;5053654;28;20032;-83
2023/03/07 10:08:10;;;;;;;5.70;3.10;;;;;;;;;;5053292;28;20033;-80
2023/03/07 10:10:54;;;;;;;11.30;6.45;;;;;;;;;;5052063;28;20036;-83
2023/03/07 10:13:42;;;;;;;6.22;3.10;;;;;;;;;;5042642;28;20119;-82
2023/03/07 10:16:07;;;;;;;6.60;3.45;;;;;;;;;;5051959;28;20389;-81
2023/03/07 10:18:35;;;;;;;8.48;3.28;;;;;;;;;;5053318;28;20029;-82
2023/03/07 10:21:17;;;;;;;6.82;4.32;;;;;;;;;;5046112;28;20075;-82
2023/03/07 10:24:01;;;;;;;5.10;3.47;;;;;;;;;;5047787;28;20045;-80
2023/03/07 10:26:53;;;;;;;7.30;3.78;;;;;;;;;;5052052;28;20040;-81
2023/03/07 10:29:20;;;;;;;7.75;3.90;;;;;;;;;;5029872;28;20408;-82
2023/03/07 10:31:56;;;;;;;5.80;3.50;;;;;;;;;;5052887;28;20026;-82
2023/03/07 10:34:23;;;;;;;6.57;3.80;;;;;;;;;;5053113;28;20037;-82
2023/03/07 10:36:49;;;;;;;7.38;4.20;;;;;;;;;;5052832;28;20081;-82
2023/03/07 10:39:34;;;;;;;9.07;4.32;;;;;;;;;;5051651;28;20108;-82
2023/03/07 10:42:00;;;;;;;8.77;4.50;;;;;;;;;;5034801;28;20059;-82
2023/03/07 10:44:26;;;;;;;7.20;4.47;;;;;;;;;;5052708;28;20067;-81
2023/03/07 10:46:54;;;;;;;7.35;4.30;;;;;;;;;;5051315;28;20048;-81
2023/03/07 10:49:25;;;;;;;7.15;4.80;;;;;;;;;;5051836;28;20484;-82
2023/03/07 10:52:09;;;;;;;7.53;4.63;;;;;;;;;;5051570;28;20041;-82
2023/03/07 10:54:35;;;;;;;7.93;4.80;;;;;;;;;;5052481;28;20136;-81
2023/03/07 10:57:01;;;;;;;;;;;;;;;;;;5035231;28;20520;-81
2023/03/07 10:59:26;;;;;;;7.72;5.05;;;;;;;;;;5052484;28;19913;-82
2023/03/07 11:01:52;;;;;;;8.25;4.72;;;;;;;;;;5035066;28;20033;-83
2023/03/07 11:04:18;;;;;;;;;;;;;;;;;;5035187;28;20198;-82
2023/03/07 11:06:50;;;;;;;8.13;4.90;;;;;;;;;;5052395;28;20019;-81
2023/03/07 11:09:28;;;;;;;7.25;5.22;;;;;;;;;;5018043;28;20036;-82
2023/03/07 11:11:55;;;;;;;8.55;4.88;;;;;;;;;;5052598;28;20121;-81
2023/03/07 11:14:21;;;;;;;10.25;4.75;;;;;;;;;;5052226;28;20511;-82
2023/03/07 11:16:51;;;;;;;8.30;5.28;;;;;;;;;;5052532;28;20028;-83
2023/03/07 11:19:23;;;;;;;10.15;6.30;;;;;;;;;;5052197;28;20032;-82
2023/03/07 11:21:53;;;;;;;10.48;6.13;;;;;;;;;;5035230;28;20391;-82
2023/03/07 11:24:23;;;;;;;8.45;5.90;;;;;;;;;;5052393;28;20396;-82
2023/03/07 11:26:52;;;;;;;9.32;5.70;;;;;;;;;;5052865;28;20045;-83
2023/03/07 11:29:17;;;;;;;9.43;6.22;;;;;;;;;;5023232;28;20132;-82
2023/03/07 11:31:43;;;;;;;11.00;6.82;;;;;;;;;;5052535;28;20056;-82
2023/03/07 11:34:26;;;;;;;9.75;6.53;;;;;;;;;;5052353;28;20087;-83
2023/03/07 11:36:58;;;;;;;13.55;8.30;;;;;;;;;;5052248;28;20411;-81
2023/03/07 11:39:24;;;;;;;12.73;9.63;;;;;;;;;;5021719;28;20554;-81
2023/03/07 11:41:57;;;;;;;12.90;9.05;;;;;;;;;;5056292;28;20013;-83
2023/03/07 11:44:33;;;;;;;11.00;6.68;;;;;;;;;;5038839;28;20136;-82
2023/03/07 11:47:14;;;;;;;10.45;6.32;;;;;;;;;;5056210;28;20112;-83
2023/03/07 11:49:43;;;;;;;12.40;6.70;;;;;;;;;;5056131;28;20032;-82
2023/03/07 11:52:13;;;;;;;10.40;7.07;;;;;;;;;;5056191;28;20044;-83
2023/03/07 11:54:42;;;;;;;9.32;6.10;;;;;;;;;;5055733;28;20064;-82
2023/03/07 11:57:13;;;;;;;10.82;6.53;;;;;;;;;;5038307;28;20033;-82
2023/03/07 11:59:42;;;;;;;14.93;8.35;;;;;;;;;;5055588;28;20112;-81
2023/03/07 12:02:18;;;;;;;11.50;7.00;;;;;;;;;;5038277;28;20082;-81
2023/03/07 12:04:47;;;;;;;12.07;6.85;;;;;;;;;;5037986;28;20565;-83
2023/03/07 12:07:12;;;;;;;9.02;5.57;;;;;;;;;;5056305;28;20055;-83
2023/03/07 12:09:38;;;;;;;9.75;6.32;;;;;;;;;;5055923;28;20436;-83
2023/03/07 12:12:14;;;;;;;10.82;6.65;;;;;;;;;;5021501;28;20036;-83
2023/03/07 12:14:39;;;;;;;9.67;6.07;;;;;;;;;;5037647;28;20400;-81
2023/03/07 12:17:18;;;;;;;9.13;5.97;;;;;;;;;;5055764;28;20260;-82
2023/03/07 12:19:57;;;;;;;14.20;7.35;;;;;;;;;;5027283;28;20120;-83
2023/03/07 12:22:23;;;;;;;14.40;8.43;;;;;;;;;;5037855;28;20033;-82
2023/03/07 12:24:48;;;;;;;12.85;7.25;;;;;;;;;;5037798;28;20055;-82
2023/03/07 12:27:16;;;;;;;11.30;6.50;;;;;;;;;;5055269;28;20056;-81
2023/03/07 12:29:49;;;;;;;13.48;6.82;;;;;;;;;;5037951;28;20029;-82
2023/03/07 12:32:16;;;;;;;9.55;6.00;;;;;;;;;;5019290;28;20064;-82
2023/03/07 12:34:42;;;;;;;10.60;6.57;;;;;;;;;;5013414;28;20167;-81
2023/03/07 12:37:11;;;;;;;8.68;5.82;;;;;;;;;;5020593;28;20035;-83
2023/03/07 12:39:52;;;;;;;11.27;5.57;;;;;;;;;;5037819;28;20067;-80
2023/03/07 12:42:31;;;;;;;11.25;5.68;;;;;;;;;;5038052;28;20033;-82
2023/03/07 12:45:05;;;;;;;8.55;5.57;;;;;;;;;;5054893;28;20040;-81
2023/03/07 12:47:49;;;;;;;10.27;5.43;;;;;;;;;;5021642;28;20036;-81
2023/03/07 12:50:23;;;;;;;8.43;5.38;;;;;;;;;;5036760;28;20106;-81
2023/03/07 12:53:05;;;;;;;8.75;6.13;;;;;;;;;;5055146;28;20036;-81
2023/03/07 12:55:42;;;;;;;7.50;5.40;;;;;;;;;;5037497;28;20047;-81
2023/03/07 12:58:16;;;;;;;10.75;6.50;;;;;;;;;;5054958;28;20430;-82
2023/03/07 13:00:49;;;;;;;10.43;5.72;;;;;;;;;;5037209;28;20036;-83
2023/03/07 13:03:17;;;;;;;8.50;5.75;;;;;;;;;;5037191;28;20025;-81
2023/03/07 13:05:43;;;;;;;10.45;6.90;;;;;;;;;;5053559;28;20033;-80
2023/03/07 13:08:09;;;;;;;11.80;6.20;;;;;;;;;;5054463;28;20132;-81
2023/03/07 13:10:35;;;;;;;;;;;;;;;;;;5037347;28;20048;-82
2023/03/07 13:13:00;;;;;;;10.95;6.38;;;;;;;;;;5054581;28;19913;-83
2023/03/07 13:15:45;;;;;;;10.25;6.85;;;;;;;;;;5053227;28;20451;-81
2023/03/07 13:18:27;;;;;;;9.27;6.90;;;;;;;;;;5042738;28;20095;-82
2023/03/07 13:21:06;;;;;;;10.93;6.55;;;;;;;;;;5053210;28;20033;-81
2023/03/07 13:23:32;;;;;;;9.98;7.10;;;;;;;;;;5053486;28;20523;-83
2023/03/07 13:25:58;;;;;;;14.52;9.18;;;;;;;;;;5054223;28;20031;-83
2023/03/07 13:28:30;;;;;;;13.75;7.28;;;;;;;;;;5053320;28;20063;-82
2023/03/07 13:31:27;;;;;;;10.23;7.25;;;;;;;;;;5054694;28;20033;-80
2023/03/07 13:33:53;;;;;;;10.18;7.15;;;;;;;;;;5037295;28;20450;-82
2023/03/07 13:36:35;;;;;;;10.05;6.90;;;;;;;;;;5053279;28;20083;-80
2023/03/07 13:39:00;;;;;;;11.05;7.03;;;;;;;;;;5052425;28;20060;-80
2023/03/07 13:41:44;;;;;;;12.30;6.47;;;;;;;;;;5054119;28;20024;-83
2023/03/07 13:44:29;;;;;;;10.25;6.43;;;;;;;;;;5053048;28;20045;-82
2023/03/07 13:47:00;;;;;;;8.93;6.05;;;;;;;;;;5054067;28;20039;-81
2023/03/07 13:49:38;;;;;;;9.70;6.03;;;;;;;;;;5052313;28;20041;-79
2023/03/07 13:52:19;;;;;;;10.88;6.47;;;;;;;;;;5043661;28;20037;-79
2023/03/07 13:54:44;;;;;;;9.88;5.70;;;;;;;;;;5048096;28;20045;-80
2023/03/07 13:57:14;;;;;;;7.85;5.05;;;;;;;;;;5039151;28;20040;-82
2023/03/07 13:59:40;;;;;;;9.70;5.90;;;;;;;;;;5036731;28;20040;-81
2023/03/07 14:02:06;;;;;;;9.35;6.40;;;;;;;;;;5054658;28;20471;-81
2023/03/07 14:04:53;;;;;;;8.65;5.38;;;;;;;;;;5047786;28;20032;-83
2023/03/07 14:07:32;;;;;;;9.75;5.85;;;;;;;;;;5053151;28;20066;-83
2023/03/07 14:10:08;;;;;;;11.27;6.60;;;;;;;;;;5036988;28;20033;-82
2023/03/07 14:12:43;;;;;;;9.27;5.33;;;;;;;;;;5050379;28;20408;-83
2023/03/07 14:15:31;;;;;;;8.57;5.43;;;;;;;;;;5064326;28;20656;-82
2023/03/07 14:18:16;;;;;;;9.68;5.95;;;;;;;;;;5043205;28;20119;-83
2023/03/07 14:20:53;;;;;;;9.25;5.72;;;;;;;;;;5058508;28;20029;-81
2023/03/07 14:23:38;;;;;;;7.72;5.22;;;;;;;;;;5053223;28;20037;-80
2023/03/07 14:26:08;;;;;;;8.48;5.60;;;;;;;;;;5048871;28;20028;-81
2023/03/07 14:28:33;;;;;;;8.48;5.72;;;;;;;;;;5068636;28;20045;-79
2023/03/07 14:31:00;;;;;;;10.70;5.63;;;;;;;;;;5042504;28;20132;-80
2023/03/07 14:33:30;;;;;;;9.75;5.63;;;;;;;;;;5053411;28;20040;-79
2023/03/07 14:35:55;;;;;;;8.45;5.35;;;;;;;;;;5035763;28;20128;-79
2023/03/07 14:38:23;;;;;;;9.43;5.00;;;;;;;;;;5035832;28;20078;-80
2023/03/07 14:40:48;;;;;;;10.65;5.53;;;;;;;;;;5053789;28;20029;-80
2023/03/07 14:43:20;;;;;;;8.75;5.38;;;;;;;;;;5036788;28;20043;-81
2023/03/07 14:45:48;;;;;;;7.65;4.80;;;;;;;;;;5035169;28;20040;-80
2023/03/07 14:48:40;;;;;;;7.78;4.78;;;;;;;;;;5048810;28;20105;-80
2023/03/07 14:51:09;;;;;;;7.68;4.65;;;;;;;;;;5039714;28;20047;-80
2023/03/07 14:53:35;;;;;;;7.90;4.30;;;;;;;;;;5034948;28;20056;-82